createdAt,value
2017-05-16T00:01:08.264Z,10.40
2017-05-16T00:03:35.216Z,10.40
2017-05-16T00:06:02.172Z,10.40
2017-05-16T00:08:29.140Z,10.40
2017-05-16T00:10:56.740Z,10.30
2017-05-16T00:13:23.674Z,10.30
2017-05-16T00:15:50.596Z,10.40
2017-05-16T00:18:17.558Z,10.30
2017-05-16T00:20:44.482Z,10.20
2017-05-16T00:23:11.429Z,10.10
2017-05-16T00:25:38.398Z,10.20
2017-05-16T00:28:05.325Z,10.20
2017-05-16T00:30:32.246Z,10.10
2017-05-16T00:32:59.431Z,10.00
2017-05-16T00:35:26.360Z,9.90
2017-05-16T00:37:53.405Z,9.90
2017-05-16T00:40:20.390Z,10.00
2017-05-16T00:42:48.065Z,10.00
2017-05-16T00:45:15.016Z,10.00
2017-05-16T00:47:41.980Z,10.10
2017-05-16T00:50:08.895Z,10.00
2017-05-16T00:52:35.841Z,10.00
2017-05-16T00:55:02.803Z,10.10
2017-05-16T00:57:29.729Z,10.00
2017-05-16T00:59:56.649Z,10.00
2017-05-16T01:02:24.425Z,9.90
2017-05-16T01:04:52.102Z,9.90
2017-05-16T01:07:19.040Z,9.80
2017-05-16T01:09:46.018Z,9.80
2017-05-16T01:12:12.949Z,9.80
2017-05-16T01:14:39.875Z,9.70
2017-05-16T01:17:06.852Z,9.70
2017-05-16T01:19:33.783Z,9.80
2017-05-16T01:22:00.721Z,9.70
2017-05-16T01:24:27.682Z,9.70
2017-05-16T01:26:54.693Z,9.60
2017-05-16T01:29:21.625Z,9.60
2017-05-16T01:31:48.581Z,9.60
2017-05-16T01:34:16.281Z,9.50
2017-05-16T01:36:43.233Z,9.50
2017-05-16T01:39:10.180Z,9.40
2017-05-16T01:41:37.692Z,9.50
2017-05-16T01:44:04.637Z,9.40
2017-05-16T01:46:32.315Z,9.30
2017-05-16T01:48:59.299Z,9.30
2017-05-16T01:51:26.238Z,9.30
2017-05-16T01:53:53.179Z,9.40
2017-05-16T01:56:20.153Z,9.30
2017-05-16T01:58:47.081Z,9.30
2017-05-16T02:01:14.029Z,9.20
2017-05-16T02:03:41.019Z,9.20
2017-05-16T02:06:08.028Z,9.20
2017-05-16T02:08:34.954Z,9.10
2017-05-16T02:11:01.935Z,9.00
2017-05-16T02:13:28.939Z,9.00
2017-05-16T02:15:55.896Z,9.00
2017-05-16T02:18:22.807Z,9.00
2017-05-16T02:20:49.724Z,9.00
2017-05-16T02:23:17.423Z,9.00
2017-05-16T02:25:44.396Z,9.10
2017-05-16T02:28:11.317Z,9.00
2017-05-16T02:30:38.250Z,9.00
2017-05-16T02:33:05.211Z,8.90
2017-05-16T02:35:32.180Z,8.90
2017-05-16T02:37:59.209Z,8.90
2017-05-16T02:40:26.148Z,8.80
2017-05-16T02:42:53.096Z,8.90
2017-05-16T02:45:20.036Z,8.90
2017-05-16T02:47:46.954Z,8.90
2017-05-16T02:50:13.937Z,8.90
2017-05-16T02:52:40.920Z,8.90
2017-05-16T02:55:08.582Z,8.90
2017-05-16T02:57:36.306Z,8.80
2017-05-16T03:00:03.244Z,8.80
2017-05-16T03:02:30.169Z,8.80
2017-05-16T03:04:57.133Z,8.80
2017-05-16T03:07:24.076Z,8.80
2017-05-16T03:09:51.012Z,8.70
2017-05-16T03:12:17.960Z,8.70
2017-05-16T03:14:44.895Z,8.60
2017-05-16T03:17:11.813Z,8.60
2017-05-16T03:19:38.832Z,8.60
2017-05-16T03:22:05.765Z,8.60
2017-05-16T03:24:32.697Z,8.50
2017-05-16T03:26:59.653Z,8.50
2017-05-16T03:29:26.584Z,8.50
2017-05-16T03:31:53.501Z,8.50
2017-05-16T03:34:20.474Z,8.50
2017-05-16T03:36:47.408Z,8.50
2017-05-16T03:39:14.352Z,8.40
2017-05-16T03:41:41.308Z,8.40
2017-05-16T03:44:08.232Z,8.40
2017-05-16T03:46:35.172Z,8.40
2017-05-16T03:49:02.140Z,8.50
2017-05-16T03:51:29.074Z,8.40
2017-05-16T03:53:56.001Z,8.40
2017-05-16T03:56:22.958Z,8.40
2017-05-16T03:58:49.893Z,8.30
2017-05-16T04:01:16.817Z,8.30
2017-05-16T04:03:43.780Z,8.40
2017-05-16T04:06:10.728Z,8.50
2017-05-16T04:08:37.676Z,8.50
2017-05-16T04:11:04.652Z,8.60
2017-05-16T04:13:31.585Z,8.70
2017-05-16T04:15:58.519Z,8.80
2017-05-16T04:18:25.504Z,8.90
2017-05-16T04:20:52.434Z,8.90
2017-05-16T04:23:19.355Z,9.00
2017-05-16T04:25:46.312Z,9.20
2017-05-16T04:28:13.231Z,9.20
2017-05-16T04:30:40.205Z,9.30
2017-05-16T04:33:07.173Z,9.50
2017-05-16T04:35:34.868Z,9.60
2017-05-16T04:38:01.933Z,9.70
2017-05-16T04:40:28.876Z,9.90
2017-05-16T04:42:55.809Z,10.10
2017-05-16T04:45:22.746Z,10.20
2017-05-16T04:47:49.729Z,10.50
2017-05-16T04:50:16.680Z,10.40
2017-05-16T04:52:43.607Z,10.50
2017-05-16T04:55:10.556Z,10.70
2017-05-16T04:57:37.780Z,10.70
2017-05-16T05:00:04.725Z,10.90
2017-05-16T05:02:31.685Z,11.00
2017-05-16T05:04:58.602Z,11.30
2017-05-16T05:07:25.541Z,11.60
2017-05-16T05:09:53.249Z,11.70
2017-05-16T05:12:20.180Z,11.50
2017-05-16T05:14:47.106Z,11.50
2017-05-16T05:17:14.083Z,11.80
2017-05-16T05:19:41.049Z,12.10
2017-05-16T05:22:08.004Z,12.50
2017-05-16T05:24:34.957Z,12.80
2017-05-16T05:27:01.933Z,12.90
2017-05-16T05:29:28.868Z,12.90
2017-05-16T05:31:56.069Z,13.30
2017-05-16T05:34:22.989Z,13.50
2017-05-16T05:36:49.928Z,13.90
2017-05-16T05:39:16.899Z,14.00
2017-05-16T05:41:43.841Z,14.00
2017-05-16T05:44:10.760Z,14.30
2017-05-16T05:46:37.716Z,14.50
2017-05-16T05:49:04.646Z,14.30
2017-05-16T05:51:31.591Z,14.40
2017-05-16T05:53:58.644Z,14.70
2017-05-16T05:56:25.578Z,15.10
2017-05-16T05:58:52.516Z,15.10
2017-05-16T06:01:19.498Z,15.50
2017-05-16T06:03:46.426Z,15.70
2017-05-16T06:06:13.357Z,16.10
2017-05-16T06:08:40.334Z,16.30
2017-05-16T06:11:07.253Z,16.70
2017-05-16T06:13:34.186Z,16.90
2017-05-16T06:16:01.141Z,17.10
2017-05-16T06:18:28.065Z,17.20
2017-05-16T06:20:54.991Z,17.50
2017-05-16T06:23:22.690Z,17.60
2017-05-16T06:25:49.629Z,17.70
2017-05-16T06:28:16.569Z,17.90
2017-05-16T06:30:43.589Z,18.00
2017-05-16T06:33:10.554Z,18.20
2017-05-16T06:35:37.512Z,18.50
2017-05-16T06:38:04.473Z,18.70
2017-05-16T06:40:31.392Z,18.80
2017-05-16T06:42:58.344Z,19.00
2017-05-16T06:45:25.277Z,19.20
2017-05-16T06:47:52.251Z,19.50
2017-05-16T06:50:19.214Z,19.70
2017-05-16T06:52:46.150Z,20.00
2017-05-16T06:55:13.141Z,19.80
2017-05-16T06:57:40.875Z,20.20
2017-05-16T07:00:07.837Z,20.50
2017-05-16T07:02:34.813Z,21.00
2017-05-16T07:05:01.752Z,21.10
2017-05-16T07:07:28.678Z,21.50
2017-05-16T07:09:56.522Z,21.80
2017-05-16T07:12:23.460Z,21.80
2017-05-16T07:14:50.466Z,21.60
2017-05-16T07:17:17.404Z,21.80
2017-05-16T07:19:44.343Z,22.50
2017-05-16T07:22:11.335Z,22.90
2017-05-16T07:24:38.344Z,23.30
2017-05-16T07:27:05.288Z,23.60
2017-05-16T07:29:32.258Z,23.70
2017-05-16T07:31:59.198Z,23.80
2017-05-16T07:34:26.141Z,24.10
2017-05-16T07:36:53.117Z,24.20
2017-05-16T07:39:20.071Z,24.60
2017-05-16T07:41:47.010Z,24.90
2017-05-16T07:44:13.969Z,25.20
2017-05-16T07:46:40.912Z,25.30
2017-05-16T07:49:07.854Z,25.70
2017-05-16T07:51:34.816Z,26.20
2017-05-16T07:54:01.787Z,26.00
2017-05-16T07:56:28.720Z,26.10
2017-05-16T07:58:55.709Z,26.10
2017-05-16T08:01:22.640Z,26.50
2017-05-16T08:03:49.582Z,27.00
2017-05-16T08:06:16.560Z,27.50
2017-05-16T08:08:43.504Z,27.80
2017-05-16T08:11:10.466Z,28.00
2017-05-16T08:13:37.401Z,28.00
2017-05-16T08:16:04.346Z,28.10
2017-05-16T08:18:31.327Z,28.80
2017-05-16T08:20:58.272Z,28.30
2017-05-16T08:23:25.233Z,28.20
2017-05-16T08:25:52.204Z,27.40
2017-05-16T08:28:19.158Z,28.20
2017-05-16T08:30:46.092Z,29.00
2017-05-16T08:33:13.644Z,29.20
2017-05-16T08:35:40.596Z,29.70
2017-05-16T08:38:07.554Z,30.40
2017-05-16T08:40:34.538Z,29.30
2017-05-16T08:43:01.529Z,29.60
2017-05-16T08:45:28.501Z,30.20
2017-05-16T08:47:55.432Z,30.40
2017-05-16T08:50:22.374Z,30.40
2017-05-16T08:52:49.362Z,29.80
2017-05-16T08:55:18.046Z,29.90
2017-05-16T08:57:44.988Z,29.30
2017-05-16T09:00:11.966Z,30.00
2017-05-16T09:02:38.926Z,29.70
2017-05-16T09:05:05.977Z,30.00
2017-05-16T09:07:32.986Z,30.40
2017-05-16T09:09:59.937Z,30.90
2017-05-16T09:12:26.869Z,31.40
2017-05-16T09:14:53.833Z,31.30
2017-05-16T09:20:01.989Z,30.70
2017-05-16T09:22:28.944Z,30.80
2017-05-16T09:24:55.881Z,31.40
2017-05-16T09:27:22.866Z,30.80
2017-05-16T09:29:49.814Z,31.30
2017-05-16T09:32:17.500Z,31.00
2017-05-16T09:34:44.494Z,30.90
2017-05-16T09:37:11.457Z,30.40
2017-05-16T09:39:38.417Z,31.20
2017-05-16T09:42:05.423Z,31.20
2017-05-16T09:44:32.388Z,31.60
2017-05-16T09:47:00.089Z,32.10
2017-05-16T09:49:27.063Z,31.80
2017-05-16T09:51:54.029Z,31.70
2017-05-16T09:54:21.032Z,31.50
2017-05-16T09:56:48.055Z,31.70
2017-05-16T09:59:15.006Z,31.90
2017-05-16T10:01:41.985Z,32.10
2017-05-16T10:04:08.928Z,31.50
2017-05-16T10:06:35.881Z,31.90
2017-05-16T10:09:02.931Z,32.10
2017-05-16T10:11:29.961Z,31.50
2017-05-16T10:13:56.905Z,31.90
2017-05-16T10:16:23.900Z,32.40
2017-05-16T10:18:50.841Z,32.80
2017-05-16T10:21:17.778Z,32.50
2017-05-16T10:23:45.513Z,32.40
2017-05-16T10:26:14.045Z,32.50
2017-05-16T10:28:40.993Z,31.70
2017-05-16T10:31:08.711Z,31.50
2017-05-16T10:33:35.703Z,31.50
2017-05-16T10:38:28.421Z,31.30
2017-05-16T10:40:55.411Z,31.00
2017-05-16T10:43:22.373Z,31.30
2017-05-16T10:45:49.352Z,31.30
2017-05-16T10:48:16.365Z,32.00
2017-05-16T10:50:43.238Z,32.20
2017-05-16T10:53:10.180Z,31.50
2017-05-16T10:55:37.167Z,30.90
2017-05-16T10:58:05.841Z,30.90
2017-05-16T11:00:32.789Z,30.70
2017-05-16T11:02:59.749Z,30.20
2017-05-16T11:05:27.486Z,28.60
2017-05-16T11:07:54.426Z,29.20
2017-05-16T11:10:21.424Z,29.70
2017-05-16T11:12:48.373Z,29.80
2017-05-16T11:15:15.330Z,29.20
2017-05-16T11:17:42.322Z,29.40
2017-05-16T11:20:09.417Z,29.20
2017-05-16T11:22:36.358Z,29.10
2017-05-16T11:25:03.334Z,28.90
2017-05-16T11:27:30.273Z,28.80
2017-05-16T11:29:57.233Z,28.60
2017-05-16T11:32:24.188Z,28.50
2017-05-16T11:34:51.147Z,28.30
2017-05-16T11:37:18.090Z,27.80
2017-05-16T11:39:45.067Z,27.40
2017-05-16T11:42:12.061Z,27.00
2017-05-16T11:44:39.040Z,27.20
2017-05-16T11:47:06.714Z,27.10
2017-05-16T11:49:33.716Z,26.80
2017-05-16T11:52:00.700Z,26.60
2017-05-16T11:54:27.645Z,26.20
2017-05-16T11:56:54.593Z,25.80
2017-05-16T11:59:21.598Z,25.80
2017-05-16T12:01:48.529Z,25.50
2017-05-16T12:04:15.525Z,25.50
2017-05-16T12:06:42.486Z,25.30
2017-05-16T12:09:09.426Z,25.40
2017-05-16T12:11:36.418Z,25.30
2017-05-16T12:14:03.384Z,24.90
2017-05-16T12:16:31.061Z,25.20
2017-05-16T12:18:58.129Z,25.10
2017-05-16T12:21:25.091Z,25.00
2017-05-16T12:23:52.030Z,25.00
2017-05-16T12:26:19.013Z,25.20
2017-05-16T12:28:45.974Z,25.20
2017-05-16T12:31:13.721Z,25.10
2017-05-16T12:33:40.683Z,25.20
2017-05-16T12:36:07.705Z,25.10
2017-05-16T12:38:34.652Z,25.10
2017-05-16T12:41:01.580Z,25.00
2017-05-16T12:43:28.571Z,24.80
2017-05-16T12:45:56.273Z,24.80
2017-05-16T12:48:23.492Z,24.80
2017-05-16T12:50:50.439Z,24.70
2017-05-16T12:53:17.401Z,23.70
2017-05-16T12:55:44.347Z,23.70
2017-05-16T12:58:11.337Z,24.20
2017-05-16T13:00:38.337Z,24.20
2017-05-16T13:03:05.337Z,24.40
2017-05-16T13:05:32.289Z,24.30
2017-05-16T13:07:59.990Z,24.20
2017-05-16T13:10:26.958Z,24.10
2017-05-16T13:12:53.939Z,23.80
2017-05-16T13:15:20.881Z,23.60
2017-05-16T13:17:47.908Z,23.70
2017-05-16T13:20:14.853Z,23.70
2017-05-16T13:22:41.903Z,23.90
2017-05-16T13:25:08.893Z,23.90
2017-05-16T13:27:35.913Z,23.90
2017-05-16T13:30:02.915Z,23.90
2017-05-16T13:32:29.884Z,23.50
2017-05-16T13:34:56.828Z,23.60
2017-05-16T13:37:23.819Z,23.70
2017-05-16T13:39:50.768Z,23.60
2017-05-16T13:42:17.709Z,23.70
2017-05-16T13:44:44.694Z,23.70
2017-05-16T13:47:11.641Z,23.60
2017-05-16T13:49:38.582Z,23.40
2017-05-16T13:52:05.540Z,23.40
2017-05-16T13:54:32.508Z,23.40
2017-05-16T13:56:59.449Z,23.40
2017-05-16T13:59:26.408Z,23.40
2017-05-16T14:01:53.399Z,23.20
2017-05-16T14:04:20.608Z,23.10
2017-05-16T14:06:48.301Z,22.90
2017-05-16T14:09:15.253Z,22.90
2017-05-16T14:11:42.272Z,22.90
2017-05-16T14:14:09.275Z,22.90
2017-05-16T14:16:36.224Z,22.70
2017-05-16T14:19:03.372Z,22.80
2017-05-16T14:21:30.341Z,22.90
2017-05-16T14:23:57.343Z,22.90
2017-05-16T14:26:24.295Z,22.90
2017-05-16T14:28:51.285Z,23.00
2017-05-16T14:31:18.984Z,23.10
2017-05-16T14:33:45.960Z,23.00
2017-05-16T14:36:12.897Z,22.90
2017-05-16T14:38:39.850Z,22.80
2017-05-16T14:41:06.820Z,22.80
2017-05-16T14:43:33.761Z,22.80
2017-05-16T14:46:01.484Z,22.80
2017-05-16T14:48:28.428Z,22.70
2017-05-16T14:50:55.404Z,22.60
2017-05-16T14:53:22.377Z,22.60
2017-05-16T14:55:49.325Z,22.50
2017-05-16T14:58:16.318Z,22.50
2017-05-16T15:00:43.263Z,22.40
2017-05-16T15:03:10.210Z,22.10
2017-05-16T15:05:37.218Z,22.00
2017-05-16T15:08:04.189Z,22.00
2017-05-16T15:10:31.149Z,22.00
2017-05-16T15:12:58.186Z,21.90
2017-05-16T15:15:25.129Z,22.00
2017-05-16T15:17:52.061Z,22.10
2017-05-16T15:20:19.037Z,22.30
2017-05-16T15:22:45.989Z,22.40
2017-05-16T15:25:12.997Z,22.40
2017-05-16T15:27:39.956Z,22.40
2017-05-16T15:30:06.909Z,22.40
2017-05-16T15:32:33.930Z,22.40
2017-05-16T15:35:00.877Z,22.20
2017-05-16T15:37:27.822Z,22.00
2017-05-16T15:39:54.780Z,22.00
2017-05-16T15:42:21.737Z,22.10
2017-05-16T15:44:48.701Z,22.00
2017-05-16T15:47:16.745Z,22.00
2017-05-16T15:49:43.701Z,22.00
2017-05-16T15:52:10.666Z,21.90
2017-05-16T15:54:38.465Z,21.90
2017-05-16T15:57:05.402Z,22.00
2017-05-16T15:59:32.372Z,22.00
2017-05-16T16:02:00.312Z,22.10
2017-05-16T16:04:27.259Z,22.10
2017-05-16T16:06:54.222Z,22.20
2017-05-16T16:09:21.189Z,22.10
2017-05-16T16:11:48.161Z,22.10
2017-05-16T16:14:15.882Z,22.10
2017-05-16T16:16:42.851Z,22.10
2017-05-16T16:19:09.836Z,22.10
2017-05-16T16:21:37.508Z,21.90
2017-05-16T16:24:04.470Z,21.90
2017-05-16T16:26:31.437Z,21.90
2017-05-16T16:28:58.464Z,22.00
2017-05-16T16:31:25.405Z,21.90
2017-05-16T16:33:52.360Z,21.80
2017-05-16T16:36:19.345Z,21.80
2017-05-16T16:38:46.692Z,21.80
2017-05-16T16:41:13.689Z,21.80
2017-05-16T16:43:40.628Z,21.70
2017-05-16T16:46:07.588Z,21.70
2017-05-16T16:48:34.559Z,21.80
2017-05-16T16:51:01.517Z,21.80
2017-05-16T16:53:28.458Z,21.80
2017-05-16T16:55:55.424Z,21.80
2017-05-16T16:58:22.410Z,21.80
2017-05-16T17:00:50.101Z,21.70
2017-05-16T17:03:17.068Z,21.70
2017-05-16T17:05:44.014Z,21.80
2017-05-16T17:08:11.747Z,21.70
2017-05-16T17:10:38.680Z,21.70
2017-05-16T17:13:05.637Z,21.60
2017-05-16T17:15:32.625Z,21.50
2017-05-16T17:18:00.327Z,21.30
2017-05-16T17:20:27.355Z,21.20
2017-05-16T17:22:55.070Z,21.10
2017-05-16T17:25:22.011Z,21.10
2017-05-16T17:27:48.984Z,21.20
2017-05-16T17:30:16.753Z,21.10
2017-05-16T17:32:43.717Z,21.10
2017-05-16T17:35:10.704Z,21.10
2017-05-16T17:37:37.649Z,21.00
2017-05-16T17:40:04.600Z,21.00
2017-05-16T17:42:31.640Z,20.90
2017-05-16T17:44:58.596Z,20.90
2017-05-16T17:47:25.571Z,20.90
2017-05-16T17:49:53.273Z,20.80
2017-05-16T17:52:20.244Z,20.70
2017-05-16T17:54:47.220Z,20.70
2017-05-16T17:57:14.899Z,20.70
2017-05-16T17:59:41.876Z,20.60
2017-05-16T18:02:08.817Z,20.60
2017-05-16T18:04:35.805Z,20.50
2017-05-16T18:07:02.765Z,20.40
2017-05-16T18:09:30.445Z,20.40
2017-05-16T18:11:57.432Z,20.40
2017-05-16T18:14:24.367Z,20.30
2017-05-16T18:16:51.372Z,20.20
2017-05-16T18:19:18.357Z,20.20
2017-05-16T18:21:45.312Z,20.00
2017-05-16T18:24:12.265Z,19.90
2017-05-16T18:26:39.254Z,19.90
2017-05-16T18:29:06.190Z,19.90
2017-05-16T18:31:33.152Z,19.80
2017-05-16T18:34:00.136Z,19.60
2017-05-16T18:36:27.085Z,19.50
2017-05-16T18:38:54.036Z,19.50
2017-05-16T18:41:21.026Z,19.50
2017-05-16T18:43:47.986Z,19.50
2017-05-16T18:46:14.957Z,19.40
2017-05-16T18:48:41.969Z,19.30
2017-05-16T18:51:08.997Z,19.20
2017-05-16T18:53:36.675Z,19.20
2017-05-16T18:56:03.628Z,19.10
2017-05-16T18:58:30.591Z,19.10
2017-05-16T19:00:57.576Z,19.00
2017-05-16T19:03:24.620Z,18.90
2017-05-16T19:05:51.585Z,19.00
2017-05-16T19:08:19.276Z,18.90
2017-05-16T19:10:46.248Z,18.90
2017-05-16T19:13:13.196Z,18.80
2017-05-16T19:15:40.154Z,18.60
2017-05-16T19:18:07.152Z,18.50
2017-05-16T19:20:34.172Z,18.50
2017-05-16T19:23:01.871Z,18.40
2017-05-16T19:25:28.816Z,18.20
2017-05-16T19:27:55.819Z,18.20
2017-05-16T19:30:23.504Z,18.10
2017-05-16T19:32:50.461Z,18.10
2017-05-16T19:35:19.637Z,18.00
2017-05-16T19:37:49.047Z,18.00
2017-05-16T19:40:18.485Z,17.90
2017-05-16T19:42:47.894Z,17.70
2017-05-16T19:45:19.348Z,17.60
2017-05-16T19:47:48.772Z,17.50
2017-05-16T19:50:18.180Z,17.40
2017-05-16T19:52:47.616Z,17.50
2017-05-16T19:55:17.021Z,17.40
2017-05-16T19:57:46.465Z,17.40
2017-05-16T20:00:15.869Z,17.40
2017-05-16T20:02:45.292Z,17.40
2017-05-16T20:05:14.690Z,17.30
2017-05-16T20:07:44.121Z,17.20
2017-05-16T20:10:13.525Z,16.90
2017-05-16T20:12:42.961Z,16.80
2017-05-16T20:15:12.386Z,16.60
2017-05-16T20:17:41.837Z,16.60
2017-05-16T20:20:11.239Z,16.50
2017-05-16T20:22:40.681Z,16.60
2017-05-16T20:25:10.093Z,16.60
2017-05-16T20:27:39.524Z,16.60
2017-05-16T20:30:08.920Z,16.60
2017-05-16T20:32:38.344Z,16.50
2017-05-16T20:35:07.773Z,16.50
2017-05-16T20:37:37.918Z,16.40
2017-05-16T20:40:07.354Z,16.40
2017-05-16T20:42:36.757Z,16.30
2017-05-16T20:45:06.219Z,16.30
2017-05-16T20:47:35.624Z,16.20
2017-05-16T20:50:05.075Z,16.20
2017-05-16T20:52:34.485Z,16.10
2017-05-16T20:55:04.732Z,16.10
2017-05-16T20:57:34.872Z,16.00
2017-05-16T21:00:04.309Z,16.10
2017-05-16T21:02:33.706Z,16.10
2017-05-16T21:05:03.128Z,16.00
2017-05-16T21:07:32.533Z,16.00
2017-05-16T21:10:01.955Z,16.00
2017-05-16T21:12:32.099Z,16.00
2017-05-16T21:15:01.526Z,16.10
2017-05-16T21:17:30.915Z,16.10
2017-05-16T21:20:00.352Z,16.00
2017-05-16T21:22:29.760Z,16.00
2017-05-16T21:24:59.215Z,15.90
2017-05-16T21:27:28.616Z,15.90
2017-05-16T21:29:58.053Z,15.80
2017-05-16T21:32:27.513Z,15.80
2017-05-16T21:34:57.706Z,15.70
2017-05-16T21:37:27.104Z,15.70
2017-05-16T21:39:56.537Z,15.70
2017-05-16T21:42:26.672Z,15.60
2017-05-16T21:44:56.114Z,15.70
2017-05-16T21:47:25.514Z,15.60
2017-05-16T21:49:54.971Z,15.50
2017-05-16T21:52:25.110Z,15.50
2017-05-16T21:54:54.549Z,15.40
2017-05-16T21:57:23.935Z,15.40
2017-05-16T21:59:53.362Z,15.40
2017-05-16T22:02:22.764Z,15.40
2017-05-16T22:04:52.204Z,15.30
2017-05-16T22:07:22.356Z,15.20
2017-05-16T22:09:51.794Z,15.10
2017-05-16T22:12:21.200Z,15.00
2017-05-16T22:14:50.653Z,15.00
2017-05-16T22:17:20.055Z,15.00
2017-05-16T22:19:49.496Z,15.00
2017-05-16T22:22:18.906Z,14.90
2017-05-16T22:24:48.332Z,14.90
2017-05-16T22:27:18.476Z,14.80
2017-05-16T22:29:47.893Z,14.80
2017-05-16T22:32:17.300Z,14.90
2017-05-16T22:34:46.752Z,14.80
2017-05-16T22:37:16.165Z,14.70
2017-05-16T22:39:46.337Z,14.60
2017-05-16T22:42:15.736Z,14.60
2017-05-16T22:44:45.901Z,14.60
2017-05-16T22:47:16.045Z,14.60
2017-05-16T22:49:45.477Z,14.60
2017-05-16T22:52:14.877Z,14.70
2017-05-16T22:54:44.317Z,14.80
2017-05-16T22:57:13.729Z,14.90
2017-05-16T22:59:43.157Z,15.00
2017-05-16T23:02:12.590Z,15.00
2017-05-16T23:04:41.993Z,15.00
2017-05-16T23:07:11.428Z,14.90
2017-05-16T23:09:40.832Z,14.90
2017-05-16T23:12:10.268Z,15.00
2017-05-16T23:14:39.686Z,15.00
2017-05-16T23:17:09.128Z,15.00
2017-05-16T23:19:38.532Z,14.90
2017-05-16T23:22:07.957Z,14.90
2017-05-16T23:24:38.128Z,14.90
2017-05-16T23:27:07.525Z,14.90
2017-05-16T23:29:36.966Z,14.90
2017-05-16T23:32:06.374Z,14.90
2017-05-16T23:34:35.821Z,14.80
2017-05-16T23:37:05.221Z,14.80
2017-05-16T23:39:34.657Z,14.70
2017-05-16T23:42:04.099Z,14.70
2017-05-16T23:44:33.535Z,14.60
2017-05-16T23:47:02.945Z,14.70
2017-05-16T23:49:32.378Z,14.60
2017-05-16T23:52:01.782Z,14.60
2017-05-16T23:54:31.233Z,14.50
2017-05-16T23:57:00.644Z,14.50
2017-05-16T23:59:30.088Z,14.60
